Time;durP1;ratioP1;P1;durP2;ratioP2;P2;SDS_P1;SDS_P2;PMS_P1;PMS_P2;Temp;Humidity;BMP_temperature;BMP_pressure;BME280_temperature;BME280_humidity;BME280_pressure;Samples;Min_cycle;Max_cycle;Signal;HPM_P1;HPM_P2
2021/10/06 00:01:45;;;;;;;;;;;;;;;-144.99;100.00;52464.41;5039963;28;20080;-76
2021/10/06 00:04:11;;;;;;;;;;;;;;;-144.99;100.00;52439.94;5032932;28;20032;-78
2021/10/06 00:06:37;;;;;;;;;;;;;;;-144.99;100.00;52433.81;5027379;28;19974;-79
2021/10/06 00:09:06;;;;;;;;;;;;;;;-144.99;100.00;52454.22;5027930;28;20004;-77
2021/10/06 00:11:33;;;;;;;;;;;;;;;-144.99;100.00;52437.91;5037683;28;19977;-78
2021/10/06 00:13:59;;;;;;;;;;;;;;;-144.99;100.00;52437.91;5048824;28;19981;-76
2021/10/06 00:16:25;;;;;;;;;;;;;;;-144.99;100.00;52448.09;5044599;28;19974;-78
2021/10/06 00:18:52;;;;;;;;;;;;;;;-144.99;100.00;52456.25;5049524;28;20474;-77
2021/10/06 00:21:18;;;;;;;;;;;;;;;-144.99;100.00;52466.44;5035086;28;19978;-76
2021/10/06 00:23:45;;;;;;;;;;;;;;;-144.99;100.00;52476.63;5041866;28;20198;-77
2021/10/06 00:26:12;;;;;;;;;;;;;;;-144.99;100.00;52403.25;5042675;28;20072;-81
2021/10/06 00:28:39;;;;;;;;;;;;;;;-144.99;100.00;52419.56;5031914;28;19977;-78
2021/10/06 00:31:05;;;;;;;;;;;;;;;-144.99;100.00;52423.63;5046511;28;19981;-77
2021/10/06 00:33:32;;;;;;;;;;;;;;;-144.99;100.00;52429.75;5040085;28;20475;-78
2021/10/06 00:35:58;;;;;;;;;;;;;;;-144.99;100.00;52456.25;5034054;28;20000;-78
2021/10/06 00:38:25;;;;;;;;;;;;;;;-144.99;100.00;52492.94;5051350;28;19953;-78
2021/10/06 00:40:51;;;;;;;;;;;;;;;-144.99;100.00;52460.31;5033644;28;20375;-79
2021/10/06 00:43:19;;;;;;;;;;;;;;;-144.99;100.00;52468.47;5048153;28;19973;-78
2021/10/06 00:45:46;;;;;;;;;;;;;;;-144.99;100.00;52476.63;5041271;28;19984;-79
2021/10/06 00:48:12;;;;;;;;;;;;;;;-144.99;100.00;52435.88;5031336;28;20045;-79
2021/10/06 00:50:38;;;;;;;;;;;;;;;-144.99;100.00;52417.53;5042269;28;20469;-79
2021/10/06 00:53:05;;;;;;;;;;;;;;;-144.99;100.00;52456.25;5051345;28;19988;-79
2021/10/06 00:55:31;;;;;;;;;;;;;;;-144.99;100.00;52444.03;5038864;28;19982;-79
2021/10/06 00:57:58;;;;;;;;;;;;;;;-144.99;100.00;52476.63;5021033;28;19978;-77
2021/10/06 01:00:25;;;;;;;;;;;;;;;-144.99;100.00;52419.56;5033461;28;20005;-80
2021/10/06 01:02:52;;;;;;;;;;;;;;;-144.99;100.00;52494.97;5037887;28;20432;-80
2021/10/06 01:05:18;;;;;;;;;;;;;;;-144.99;100.00;52456.25;5032219;28;20351;-78
2021/10/06 01:07:44;;;;;;;;;;;;;;;-144.99;100.00;52452.16;5031172;28;20004;-80
2021/10/06 01:10:12;;;;;;;;;;;;;;;-144.99;100.00;52446.06;5044610;28;19984;-80
2021/10/06 01:12:39;;;;;;;;;;;;;;;-144.99;100.00;52435.88;5039602;28;19985;-81
2021/10/06 01:15:07;;;;;;;;;;;;;;;-144.99;100.00;52456.25;5040396;28;19978;-79
2021/10/06 01:17:35;;;;;;;;;;;;;;;-144.99;100.00;52448.09;5032169;28;19990;-80
2021/10/06 01:20:01;;;;;;;;;;;;;;;-144.99;100.00;52460.31;5032478;28;20016;-79
2021/10/06 01:22:29;;;;;;;;;;;;;;;-144.99;100.00;52505.16;5032774;28;20001;-80
2021/10/06 01:24:55;;;;;;;;;;;;;;;-144.99;100.00;52421.59;5032921;28;19978;-78
2021/10/06 01:27:22;;;;;;;;;;;;;;;-144.99;100.00;52460.31;5054533;28;19981;-80
2021/10/06 01:29:48;;;;;;;;;;;;;;;-144.99;100.00;52464.41;5054011;28;19997;-80
2021/10/06 01:32:15;;;;;;;;;;;;;;;-144.99;100.00;52435.88;5019786;28;19978;-79
2021/10/06 01:34:42;;;;;;;;;;;;;;;-144.99;100.00;52448.09;5032747;28;19973;-77
2021/10/06 01:37:10;;;;;;;;;;;;;;;-144.99;100.00;52464.41;5018818;28;22399;-79
2021/10/06 01:39:38;;;;;;;;;;;;;;;-144.99;100.00;52439.94;5036999;28;20005;-76
2021/10/06 01:42:04;;;;;;;;;;;;;;;-144.99;100.00;52448.09;5035249;28;20413;-76
2021/10/06 01:44:31;;;;;;;;;;;;;;;-144.99;100.00;52444.03;5038489;28;20031;-79
2021/10/06 01:46:57;;;;;;;;;;;;;;;-144.99;100.00;52464.41;5031294;28;19977;-78
2021/10/06 01:49:23;;;;;;;;;;;;;;;-144.99;100.00;52472.56;5037771;28;19997;-77
2021/10/06 01:51:50;;;;;;;;;;;;;;;-144.99;100.00;52480.72;5032102;28;19977;-78
2021/10/06 01:54:17;;;;;;;;;;;;;;;-144.99;100.00;52472.56;5041944;28;20476;-77
2021/10/06 01:56:44;;;;;;;;;;;;;;;-144.99;100.00;52444.03;5044339;28;19965;-80
2021/10/06 01:59:11;;;;;;;;;;;;;;;-144.99;100.00;52472.56;5046422;28;20186;-80
2021/10/06 02:01:37;;;;;;;;;;;;;;;-144.99;100.00;52444.03;5040100;28;19981;-79
2021/10/06 02:04:04;;;;;;;;;;;;;;;-144.99;100.00;52444.03;5050719;28;19941;-79
2021/10/06 02:06:30;;;;;;;;;;;;;;;-144.99;100.00;52488.84;5028314;28;19977;-79
2021/10/06 02:08:57;;;;;;;;;;;;;;;-144.99;100.00;52472.56;5031079;28;19984;-78
2021/10/06 02:11:23;;;;;;;;;;;;;;;-144.99;100.00;52488.84;5030388;28;19977;-79
2021/10/06 02:13:51;;;;;;;;;;;;;;;-144.99;100.00;52435.88;5032008;28;19992;-78
2021/10/06 02:16:18;;;;;;;;;;;;;;;-144.99;100.00;52450.13;5030285;28;19986;-79
2021/10/06 02:18:44;;;;;;;;;;;;;;;-144.99;100.00;52433.81;5032955;28;20035;-76
2021/10/06 02:21:11;;;;;;;;;;;;;;;-144.99;100.00;52472.56;5021586;28;20056;-74
2021/10/06 02:23:38;;;;;;;;;;;;;;;-144.99;100.00;52468.47;5038286;28;19993;-75
2021/10/06 02:26:04;;;;;;;;;;;;;;;-144.99;100.00;52484.78;5023732;28;19981;-78
2021/10/06 02:28:30;;;;;;;;;;;;;;;-144.99;100.00;52460.31;5030961;28;20007;-78
2021/10/06 02:30:58;;;;;;;;;;;;;;;-144.99;100.00;52484.78;5021553;28;19989;-78
2021/10/06 02:33:24;;;;;;;;;;;;;;;-144.99;100.00;52464.41;5028690;28;20355;-78
2021/10/06 02:35:51;;;;;;;;;;;;;;;-144.99;100.00;52433.81;5024307;28;19999;-77
2021/10/06 02:38:17;;;;;;;;;;;;;;;-144.99;100.00;52427.72;5028733;28;19980;-75
2021/10/06 02:40:43;;;;;;;;;;;;;;;-144.99;99.71;52431.78;5031366;28;20086;-77
2021/10/06 02:43:10;;;;;;;;;;;;;;;-144.99;99.20;52456.25;5035361;28;19981;-78
2021/10/06 02:45:36;;;;;;;;;;;;;;;-144.99;99.08;52448.09;5057604;28;19977;-78
2021/10/06 02:48:04;;;;;;;;;;;;;;;-144.99;98.59;52435.88;5035263;28;19978;-79
2021/10/06 02:50:30;;;;;;;;;;;;;;;-144.99;98.72;52488.84;5043132;28;19997;-79
2021/10/06 02:52:57;;;;;;;;;;;;;;;-144.99;98.80;52488.84;5037921;28;19988;-79
2021/10/06 02:55:23;;;;;;;;;;;;;;;-144.99;98.16;52448.09;5043106;28;19978;-79
2021/10/06 02:57:50;;;;;;;;;;;;;;;-144.99;99.01;52448.09;5031716;28;19985;-74
2021/10/06 03:00:17;;;;;;;;;;;;;;;-144.99;98.72;52446.06;5048723;28;20001;-77
2021/10/06 03:02:43;;;;;;;;;;;;;;;-144.99;98.45;52452.16;5032001;28;19989;-77
2021/10/06 03:05:11;;;;;;;;;;;;;;;-144.99;98.31;52450.13;5030000;28;19984;-77
2021/10/06 03:07:37;;;;;;;;;;;;;;;-144.99;98.16;52480.72;5040559;28;20028;-75
2021/10/06 03:10:05;;;;;;;;;;;;;;;-144.99;98.08;52488.84;5049433;28;19997;-78
2021/10/06 03:12:31;;;;;;;;;;;;;;;-144.99;97.86;52456.25;5049627;28;19987;-78
2021/10/06 03:14:58;;;;;;;;;;;;;;;-144.99;97.85;52452.16;5043672;28;20109;-77
2021/10/06 03:17:24;;;;;;;;;;;;;;;-144.99;97.76;52480.72;5026668;28;19974;-77
2021/10/06 03:19:51;;;;;;;;;;;;;;;-144.99;97.49;52480.72;5033142;28;20008;-78
2021/10/06 03:22:19;;;;;;;;;;;;;;;-144.99;97.46;52452.16;5030098;28;20337;-76
2021/10/06 03:24:45;;;;;;;;;;;;;;;-144.99;97.28;52435.88;5026791;28;20001;-77
2021/10/06 03:27:13;;;;;;;;;;;;;;;-144.99;96.85;52466.44;5032094;28;19997;-77
2021/10/06 03:29:39;;;;;;;;;;;;;;;-144.99;96.70;52462.34;5027650;28;20063;-76
2021/10/06 03:32:06;;;;;;;;;;;;;;;-144.99;96.37;52492.94;5032483;28;19981;-78
2021/10/06 03:34:32;;;;;;;;;;;;;;;-144.99;96.35;52456.25;5037203;28;19981;-76
2021/10/06 03:36:58;;;;;;;;;;;;;;;-144.99;96.76;52444.03;5022277;28;19985;-76
2021/10/06 03:39:26;;;;;;;;;;;;;;;-144.99;96.75;52439.94;5033560;28;20025;-76
2021/10/06 03:41:52;;;;;;;;;;;;;;;-144.99;96.91;52460.31;5027600;28;19984;-77
2021/10/06 03:44:19;;;;;;;;;;;;;;;-144.99;96.84;52497.00;5039959;28;19988;-74
2021/10/06 03:46:45;;;;;;;;;;;;;;;-144.99;96.70;52480.72;5044614;28;19978;-75
2021/10/06 03:49:11;;;;;;;;;;;;;;;-144.99;96.92;52501.09;5052860;28;20012;-77
2021/10/06 03:51:38;;;;;;;;;;;;;;;-144.99;97.17;52486.81;5034395;28;19985;-78
2021/10/06 03:54:04;;;;;;;;;;;;;;;-144.99;97.23;52456.25;5034629;28;19985;-77
2021/10/06 03:56:32;;;;;;;;;;;;;;;-144.99;97.67;52480.72;5039592;28;19977;-78
2021/10/06 03:58:58;;;;;;;;;;;;;;;-144.99;97.39;52488.84;5040417;28;20497;-78
2021/10/06 04:01:24;;;;;;;;;;;;;;;-144.99;98.26;52468.47;5032536;28;20000;-79
2021/10/06 04:03:51;;;;;;;;;;;;;;;-144.99;97.78;52501.09;5033689;28;20282;-77
2021/10/06 04:06:17;;;;;;;;;;;;;;;-144.99;97.65;52460.31;5025617;28;20027;-79
2021/10/06 04:08:43;;;;;;;;;;;;;;;-144.99;98.00;52497.00;5033381;28;19988;-79
2021/10/06 04:11:10;;;;;;;;;;;;;;;-144.99;98.44;52474.59;5036662;28;19985;-78
2021/10/06 04:13:37;;;;;;;;;;;;;;;-144.99;98.94;52505.16;5032893;28;19982;-77
2021/10/06 04:16:04;;;;;;;;;;;;;;;-144.99;98.73;52492.94;5036284;28;20523;-74
2021/10/06 04:18:30;;;;;;;;;;;;;;;-144.99;100.00;52511.28;5046028;28;19985;-71
2021/10/06 04:20:56;;;;;;;;;;;;;;;-144.99;99.86;52464.41;5029534;28;19997;-70
2021/10/06 04:23:23;;;;;;;;;;;;;;;-144.99;99.43;52478.66;5030372;28;20347;-72
2021/10/06 04:25:49;;;;;;;;;;;;;;;-144.99;99.08;52513.31;5040388;28;19977;-71
2021/10/06 04:28:16;;;;;;;;;;;;;;;-144.99;99.30;52497.00;5030890;28;19981;-71
2021/10/06 04:30:43;;;;;;;;;;;;;;;-144.99;99.05;52517.41;5030080;28;20051;-71
2021/10/06 04:33:10;;;;;;;;;;;;;;;-144.99;99.53;52460.31;5030036;28;19988;-71
2021/10/06 04:35:36;;;;;;;;;;;;;;;-144.99;99.52;52492.94;5032260;28;19978;-72
2021/10/06 04:38:02;;;;;;;;;;;;;;;-144.99;99.48;52490.91;5030001;28;19981;-72
2021/10/06 04:40:29;;;;;;;;;;;;;;;-144.99;99.24;52513.31;5030468;28;20001;-71
2021/10/06 04:42:55;;;;;;;;;;;;;;;-144.99;99.69;52492.94;5030313;28;19989;-72
2021/10/06 04:45:22;;;;;;;;;;;;;;;-144.99;99.35;52460.31;5039281;28;20442;-72
2021/10/06 04:47:50;;;;;;;;;;;;;;;-144.99;99.95;52478.66;5019924;28;19982;-73
2021/10/06 04:50:16;;;;;;;;;;;;;;;-144.99;99.84;52484.78;5051545;28;20004;-75
2021/10/06 04:52:42;;;;;;;;;;;;;;;-144.99;99.79;52476.63;5050962;28;19989;-75
2021/10/06 04:55:09;;;;;;;;;;;;;;;-144.99;99.75;52497.00;5050676;28;20455;-75
2021/10/06 04:57:35;;;;;;;;;;;;;;;-144.99;100.00;52509.25;5036625;28;20036;-74
2021/10/06 05:00:03;;;;;;;;;;;;;;;-144.99;100.00;52472.56;5030877;28;20005;-75
2021/10/06 05:02:29;;;;;;;;;;;;;;;-144.99;100.00;52484.78;3991609;28;10000783;-75
2021/10/06 05:04:56;;;;;;;;;;;;;;;-144.99;100.00;52497.00;5033256;28;19989;-76
2021/10/06 05:07:23;;;;;;;;;;;;;;;-144.99;100.00;52501.09;5033083;28;20039;-76
2021/10/06 05:09:49;;;;;;;;;;;;;;;-144.99;100.00;52480.72;5028897;28;20311;-75
2021/10/06 05:12:15;;;;;;;;;;;;;;;-144.99;100.00;52509.25;5033069;28;19985;-76
2021/10/06 05:14:42;;;;;;;;;;;;;;;-144.99;100.00;52488.84;5028896;28;20000;-75
2021/10/06 05:17:08;;;;;;;;;;;;;;;-144.99;100.00;52517.41;5028459;28;19985;-74
2021/10/06 05:19:34;;;;;;;;;;;;;;;-144.99;100.00;52507.19;5027536;28;20002;-76
2021/10/06 05:22:02;;;;;;;;;;;;;;;-144.99;100.00;52472.56;5027329;28;20004;-76
2021/10/06 05:24:29;;;;;;;;;;;;;;;-144.99;100.00;52509.25;5026948;28;20017;-75
2021/10/06 05:26:55;;;;;;;;;;;;;;;-144.99;100.00;52513.31;5027323;28;19981;-76
2021/10/06 05:29:21;;;;;;;;;;;;;;;-144.99;100.00;52476.63;5029163;28;20009;-78
2021/10/06 05:31:48;;;;;;;;;;;;;;;-144.99;100.00;52456.25;5042740;28;19985;-75
2021/10/06 05:34:14;;;;;;;;;;;;;;;-144.99;100.00;52497.00;5027726;28;20041;-75
2021/10/06 05:36:41;;;;;;;;;;;;;;;-144.99;100.00;52478.66;5025084;28;20005;-76
2021/10/06 05:39:08;;;;;;;;;;;;;;;-144.99;100.00;52435.88;5039054;28;20005;-76
2021/10/06 05:41:35;;;;;;;;;;;;;;;-144.99;100.00;52456.25;5047759;28;20000;-78
2021/10/06 05:44:01;;;;;;;;;;;;;;;-144.99;100.00;52501.09;5038568;28;19981;-75
2021/10/06 05:46:27;;;;;;;;;;;;;;;-144.99;100.00;52472.56;5038071;28;19981;-74
2021/10/06 05:48:54;;;;;;;;;;;;;;;-144.99;100.00;52517.41;5008517;28;19982;-77
2021/10/06 05:51:20;;;;;;;;;;;;;;;-144.99;100.00;52497.00;5026233;28;19982;-74
2021/10/06 05:53:47;;;;;;;;;;;;;;;-144.99;100.00;52517.41;5031365;28;19988;-74
2021/10/06 05:56:14;;;;;;;;;;;;;;;-144.99;100.00;52539.81;5033834;28;20543;-75
2021/10/06 05:58:43;;;;;;;;;;;;;;;-144.99;100.00;52472.56;5028846;28;19989;-75
2021/10/06 06:01:09;;;;;;;;;;;;;;;-144.99;100.00;52480.72;5027076;28;20005;-76
2021/10/06 06:03:35;;;;;;;;;;;;;;;-144.99;100.00;52446.06;5019781;28;19985;-76
2021/10/06 06:06:02;;;;;;;;;;;;;;;-144.99;100.00;52484.78;5026454;28;20332;-75
2021/10/06 06:08:28;;;;;;;;;;;;;;;-144.99;99.86;52488.84;5027694;28;19985;-73
2021/10/06 06:10:54;;;;;;;;;;;;;;;-144.99;99.90;52488.84;5040750;28;19993;-76
2021/10/06 06:13:22;;;;;;;;;;;;;;;-144.99;99.70;52501.09;5027781;28;19989;-75
2021/10/06 06:15:52;;;;;;;;;;;;;;;-144.99;99.25;52490.91;5027849;28;20428;-75
2021/10/06 06:18:18;;;;;;;;;;;;;;;-144.99;98.65;52476.63;5028778;28;19985;-74
2021/10/06 06:20:44;;;;;;;;;;;;;;;-144.99;98.41;52486.81;5027582;28;20017;-74
2021/10/06 06:23:11;;;;;;;;;;;;;;;-144.99;97.88;52497.00;5028426;28;19982;-77
2021/10/06 06:25:37;;;;;;;;;;;;;;;-144.99;97.57;52450.13;5028624;28;19978;-75
2021/10/06 06:28:04;;;;;;;;;;;;;;;-144.99;97.37;52464.41;5026519;28;19988;-77
2021/10/06 06:30:31;;;;;;;;;;;;;;;-144.99;96.35;52486.81;5028702;28;19998;-77
2021/10/06 06:32:58;;;;;;;;;;;;;;;-144.99;95.91;52419.56;5028480;28;20557;-75
2021/10/06 06:35:24;;;;;;;;;;;;;;;-144.99;95.06;52441.97;5037426;28;19981;-76
2021/10/06 06:37:50;;;;;;;;;;;;;;;-144.99;94.86;52492.94;5048223;28;20382;-75
2021/10/06 06:40:17;;;;;;;;;;;;;;;-144.99;94.71;52427.72;5048349;28;20475;-77
2021/10/06 06:42:43;;;;;;;;;;;;;;;-144.99;95.66;52456.25;5034529;28;19989;-76
2021/10/06 06:45:10;;;;;;;;;;;;;;;-144.99;95.20;52517.41;5034100;28;20830;-75
2021/10/06 06:47:39;;;;;;;;;;;;;;;-144.99;94.55;52464.41;5032395;28;19982;-76
2021/10/06 06:50:06;;;;;;;;;;;;;;;-144.99;94.58;52488.84;5034915;28;20001;-76
2021/10/06 06:52:32;;;;;;;;;;;;;;;-144.99;94.23;52452.16;5048860;28;19981;-76
2021/10/06 06:54:58;;;;;;;;;;;;;;;-144.99;94.05;52409.38;5038839;28;19981;-78
2021/10/06 06:57:25;;;;;;;;;;;;;;;-144.99;93.25;52460.31;5052661;28;19985;-77
2021/10/06 06:59:51;;;;;;;;;;;;;;;-144.99;92.65;52468.47;5052695;28;20001;-76
2021/10/06 07:02:20;;;;;;;;;;;;;;;-144.99;91.91;52480.72;5033533;28;19997;-77
2021/10/06 07:04:47;;;;;;;;;;;;;;;-144.99;91.42;52419.56;5026474;28;19982;-76
2021/10/06 07:07:14;;;;;;;;;;;;;;;-144.99;90.47;52462.34;5019337;28;19990;-77
2021/10/06 07:09:47;;;;;;;;;;;;;;;-144.99;89.50;52448.09;5051301;28;20067;-76
2021/10/06 07:12:13;;;;;;;;;;;;;;;-144.99;88.17;52450.13;5035681;28;19981;-76
2021/10/06 07:14:40;;;;;;;;;;;;;;;-144.99;88.12;52444.03;5031391;28;20012;-74
2021/10/06 07:17:06;;;;;;;;;;;;;;;-144.99;87.02;52435.88;5032408;28;19982;-76
2021/10/06 07:19:32;;;;;;;;;;;;;;;-144.99;86.21;52435.88;5031610;28;20001;-75
2021/10/06 07:22:00;;;;;;;;;;;;;;;-144.99;85.87;52448.09;5031462;28;20001;-77
2021/10/06 07:24:26;;;;;;;;;;;;;;;-144.99;85.01;52435.88;5031012;28;20393;-77
2021/10/06 07:26:53;;;;;;;;;;;;;;;-144.99;85.78;52439.94;5041977;28;19992;-79
2021/10/06 07:29:19;;;;;;;;;;;;;;;-144.99;86.68;52441.97;5037149;28;19998;-76
2021/10/06 07:31:45;;;;;;;;;;;;;;;-144.99;85.24;52419.56;5048308;28;20417;-77
2021/10/06 07:34:12;;;;;;;;;;;;;;;-144.99;85.05;52448.09;5048926;28;20084;-76
2021/10/06 07:36:38;;;;;;;;;;;;;;;-144.99;84.71;52403.25;5037815;28;19981;-78
2021/10/06 07:39:06;;;;;;;;;;;;;;;-144.99;84.24;52423.63;5051008;28;19997;-76
2021/10/06 07:41:33;;;;;;;;;;;;;;;-144.99;83.48;52395.09;5051073;28;20004;-76
2021/10/06 07:43:59;;;;;;;;;;;;;;;-144.99;82.71;52413.44;5044323;28;20451;-76
2021/10/06 07:46:25;;;;;;;;;;;;;;;-144.99;83.21;52427.72;5044909;28;20413;-76
2021/10/06 07:48:52;;;;;;;;;;;;;;;-144.99;82.14;52439.94;5031534;28;19993;-74
2021/10/06 07:51:18;;;;;;;;;;;;;;;-144.99;80.88;52435.88;5046510;28;20008;-77
2021/10/06 07:53:45;;;;;;;;;;;;;;;-144.99;81.80;52419.56;5042301;28;19981;-76
2021/10/06 07:56:12;;;;;;;;;;;;;;;-144.99;79.99;52407.31;5031437;28;19992;-76
2021/10/06 07:58:39;;;;;;;;;;;;;;;-144.99;80.05;52415.47;5030398;28;20379;-77
2021/10/06 08:01:05;;;;;;;;;;;;;;;-144.99;81.29;52474.59;5031501;28;19997;-76
2021/10/06 08:03:31;;;;;;;;;;;;;;;-144.99;80.67;52464.41;5030503;28;20178;-76
2021/10/06 08:05:58;;;;;;;;;;;;;;;-144.99;81.01;52435.88;5033505;28;19984;-75
2021/10/06 08:08:26;;;;;;;;;;;;;;;-144.99;80.54;52448.09;5050673;28;19996;-77
2021/10/06 08:10:53;;;;;;;;;;;;;;;-144.99;80.62;52419.56;5045873;28;20032;-76
2021/10/06 08:13:20;;;;;;;;;;;;;;;-144.99;79.12;52427.72;5030476;28;19992;-75
2021/10/06 08:15:47;;;;;;;;;;;;;;;-144.99;78.37;52456.25;5031248;28;19986;-75
2021/10/06 08:18:16;;;;;;;;;;;;;;;-144.99;78.56;52444.03;5044821;28;19985;-76
2021/10/06 08:20:42;;;;;;;;;;;;;;;-144.99;77.29;52395.09;5039351;28;19997;-75
2021/10/06 08:23:09;;;;;;;;;;;;;;;-144.99;77.80;52439.94;5027896;28;19975;-76
2021/10/06 08:25:35;;;;;;;;;;;;;;;-144.99;77.28;52407.31;5029249;28;20059;-74
2021/10/06 08:28:01;;;;;;;;;;;;;;;-144.99;77.30;52441.97;5030639;28;20255;-74
2021/10/06 08:30:29;;;;;;;;;;;;;;;-144.99;77.92;52419.56;5037472;28;19997;-76
2021/10/06 08:32:55;;;;;;;;;;;;;;;-144.99;77.84;52403.25;5049505;28;20385;-76
2021/10/06 08:35:22;;;;;;;;;;;;;;;-144.99;77.01;52427.72;5049903;28;20374;-75
2021/10/06 08:37:48;;;;;;;;;;;;;;;-144.99;76.74;52439.94;5049082;28;19988;-73
2021/10/06 08:40:15;;;;;;;;;;;;;;;-144.99;77.42;52431.78;5049349;28;20001;-74
2021/10/06 08:42:41;;;;;;;;;;;;;;;-144.99;76.17;52399.19;5049808;28;20001;-76
2021/10/06 08:45:08;;;;;;;;;;;;;;;-144.99;75.82;52407.31;5043557;28;19987;-77
2021/10/06 08:47:37;;;;;;;;;;;;;;;-144.99;76.29;52417.53;5033889;28;20482;-73
2021/10/06 08:50:04;;;;;;;;;;;;;;;-144.99;75.00;52386.94;5035610;28;20004;-75
2021/10/06 08:52:30;;;;;;;;;;;;;;;-144.99;73.69;52419.56;5038169;28;19985;-77
2021/10/06 08:54:56;;;;;;;;;;;;;;;-144.99;73.70;52386.94;5035246;28;20008;-74
2021/10/06 08:57:22;;;;;;;;;;;;;;;-144.99;73.24;52382.88;5049205;28;20443;-74
2021/10/06 08:59:49;;;;;;;;;;;;;;;-144.99;72.32;52366.56;5042285;28;20003;-73
2021/10/06 09:02:16;;;;;;;;;;;;;;;-144.99;70.82;52354.34;5027373;28;20471;-75
2021/10/06 09:04:44;;;;;;;;;;;;;;;-144.99;71.13;52374.72;5019861;28;19982;-76
2021/10/06 09:07:11;;;;;;;;;;;;;;;-144.99;70.45;52386.94;5028334;28;19989;-76
2021/10/06 09:09:38;;;;;;;;;;;;;;;-144.99;70.00;52409.38;5028868;28;20002;-75
2021/10/06 09:12:09;;;;;;;;;;;;;;;-144.99;69.95;52419.56;5032745;28;19982;-76
2021/10/06 09:14:39;;;;;;;;;;;;;;;-144.99;69.28;52444.03;5028683;28;19989;-76
2021/10/06 09:17:06;;;;;;;;;;;;;;;-144.99;69.84;52407.31;5041513;28;19997;-76
2021/10/06 09:19:37;;;;;;;;;;;;;;;-144.99;70.91;52419.56;5028355;28;20088;-75
2021/10/06 09:22:06;;;;;;;;;;;;;;;-144.99;71.74;52423.63;5027692;28;20009;-75
2021/10/06 09:24:48;;;;;;;;;;;;;;;-144.99;71.76;52407.31;5028197;28;20443;-75
2021/10/06 09:27:14;;;;;;;;;;;;;;;-144.99;70.96;52395.09;5016845;28;19992;-76
2021/10/06 09:29:46;;;;;;;;;;;;;;;-144.99;70.87;52435.88;5044462;28;19997;-77
2021/10/06 09:32:20;;;;;;;;;;;;;;;-144.99;69.96;52380.84;5028482;28;19982;-78
2021/10/06 09:34:58;;;;;;;;;;;;;;;-144.99;68.71;52395.09;5038282;28;20014;-77
2021/10/06 09:37:26;;;;;;;;;;;;;;;-144.99;66.04;52378.78;5028017;28;20076;-76
2021/10/06 09:39:53;;;;;;;;;;;;;;;-144.99;64.39;52403.25;5046234;28;20012;-77
2021/10/06 09:42:19;;;;;;;;;;;;;;;-144.99;62.13;52307.47;5048361;28;19993;-76
2021/10/06 09:44:52;;;;;;;;;;;;;;;-144.99;61.49;52356.38;5037688;28;19988;-76
2021/10/06 09:47:18;;;;;;;;;;;;;;;-144.99;62.27;52336.00;5025167;28;20008;-76
2021/10/06 09:49:45;;;;;;;;;;;;;;;-144.99;62.38;52374.72;5040285;28;20008;-77
2021/10/06 09:52:15;;;;;;;;;;;;;;;-144.99;61.91;52370.63;5024882;28;19981;-76
2021/10/06 09:54:46;;;;;;;;;;;;;;;-144.99;62.71;52391.03;5037104;28;20331;-76
2021/10/06 09:57:21;;;;;;;;;;;;;;;-144.99;63.86;52421.59;5039929;28;19988;-74
2021/10/06 09:59:48;;;;;;;;;;;;;;;-144.99;63.35;52374.72;5047684;28;20024;-75
2021/10/06 10:02:14;;;;;;;;;;;;;;;-144.99;63.08;52378.78;5025440;28;20017;-75
2021/10/06 10:04:41;;;;;;;;;;;;;;;-144.99;63.21;52391.03;5027790;28;19988;-75
2021/10/06 10:07:10;;;;;;;;;;;;;;;-144.99;62.97;52382.88;5029001;28;19977;-75
2021/10/06 10:09:37;;;;;;;;;;;;;;;-144.99;64.37;52388.97;5015587;28;20038;-76
2021/10/06 10:12:05;;;;;;;;;;;;;;;-144.99;65.20;52460.31;5031056;28;19989;-77
2021/10/06 10:14:32;;;;;;;;;;;;;;;-144.99;65.59;52388.97;5027651;28;20456;-77
2021/10/06 10:16:59;;;;;;;;;;;;;;;-144.99;64.91;52378.78;5028036;28;20028;-76
2021/10/06 10:19:26;;;;;;;;;;;;;;;-144.99;65.50;52419.56;5028496;28;20009;-75
2021/10/06 10:21:53;;;;;;;;;;;;;;;-144.99;66.30;52454.22;5029249;28;20420;-77
2021/10/06 10:24:21;;;;;;;;;;;;;;;-144.99;65.74;52456.25;5030120;28;19981;-76
2021/10/06 10:26:56;;;;;;;;;;;;;;;-144.99;66.27;52444.03;5037159;28;19977;-76
2021/10/06 10:29:34;;;;;;;;;;;;;;;-144.99;66.32;52415.47;5031377;28;19996;-77
2021/10/06 10:32:08;;;;;;;;;;;;;;;-144.99;67.22;52452.16;5032463;28;20134;-73
2021/10/06 10:34:53;;;;;;;;;;;;;;;-144.99;67.98;52419.56;5038184;28;19981;-78
2021/10/06 10:37:21;;;;;;;;;;;;;;;-144.99;68.30;52427.72;5035102;28;19985;-76
2021/10/06 10:39:52;;;;;;;;;;;;;;;-144.99;68.14;52456.25;5045861;28;20248;-76
2021/10/06 10:42:18;;;;;;;;;;;;;;;-144.99;68.84;52476.63;5031164;28;20540;-76
2021/10/06 10:44:46;;;;;;;;;;;;;;;-144.99;68.86;52427.72;5041005;28;20447;-77
2021/10/06 10:47:13;;;;;;;;;;;;;;;-144.99;68.84;52423.63;5038608;28;19981;-77
2021/10/06 10:49:43;;;;;;;;;;;;;;;-144.99;68.30;52458.28;5031493;28;20008;-76
2021/10/06 10:52:09;;;;;;;;;;;;;;;-144.99;68.27;52441.97;5042794;28;19990;-76
2021/10/06 10:54:37;;;;;;;;;;;;;;;-144.99;68.75;52484.78;5050851;28;20466;-74
2021/10/06 10:57:07;;;;;;;;;;;;;;;-144.99;68.82;52460.31;5051313;28;20372;-74
2021/10/06 10:59:41;;;;;;;;;;;;;;;-144.99;68.96;52464.41;5051942;28;20001;-76
2021/10/06 11:02:16;;;;;;;;;;;;;;;-144.99;69.57;52444.03;5034081;28;20449;-75
2021/10/06 11:04:45;;;;;;;;;;;;;;;-144.99;69.73;52435.88;5032468;28;19988;-75
2021/10/06 11:07:17;;;;;;;;;;;;;;;-144.99;70.25;52425.66;5037820;28;20455;-75
2021/10/06 11:09:47;;;;;;;;;;;;;;;-144.99;68.88;52431.78;5051462;28;19997;-75
2021/10/06 11:12:33;;;;;;;;;;;;;;;-144.99;68.48;52444.03;5035102;28;20565;-73
2021/10/06 11:15:26;;;;;;;;;;;;;;;-144.99;67.76;52439.94;5032830;28;19985;-77
2021/10/06 11:18:18;;;;;;;;;;;;;;;-144.99;67.25;52399.19;5033690;28;19978;-75
2021/10/06 11:20:47;;;;;;;;;;;;;;;-144.99;67.29;52439.94;5019618;28;19997;-75
2021/10/06 11:23:32;;;;;;;;;;;;;;;-144.99;67.95;52448.09;5030959;28;20473;-76
2021/10/06 11:25:58;;;;;;;;;;;;;;;-144.99;68.29;52370.63;5031079;28;19985;-75
2021/10/06 11:28:25;;;;;;;;;;;;;;;-144.99;68.30;52419.56;5030548;28;20008;-75
2021/10/06 11:30:54;;;;;;;;;;;;;;;-144.99;68.38;52427.72;5030803;28;20001;-75
2021/10/06 11:33:24;;;;;;;;;;;;;;;-144.99;69.27;52456.25;5046450;28;19996;-74
2021/10/06 11:35:52;;;;;;;;;;;;;;;-144.99;68.85;52427.72;5045021;28;19982;-78
2021/10/06 11:38:18;;;;;;;;;;;;;;;-144.99;69.05;52419.56;5058733;28;20423;-75
2021/10/06 11:40:45;;;;;;;;;;;;;;;-144.99;69.20;52435.88;5052469;28;20412;-76
2021/10/06 11:43:11;;;;;;;;;;;;;;;-144.99;69.58;52423.63;5048978;28;20001;-75
2021/10/06 11:45:37;;;;;;;;;;;;;;;-144.99;69.04;52476.63;5039259;28;20096;-76
2021/10/06 11:48:10;;;;;;;;;;;;;;;-144.99;70.00;52439.94;5035130;28;20368;-76
2021/10/06 11:50:37;;;;;;;;;;;;;;;-144.99;70.51;52452.16;5031331;28;19984;-75
2021/10/06 11:53:05;;;;;;;;;;;;;;;-144.99;70.62;52415.47;5030751;28;20076;-73
2021/10/06 11:55:31;;;;;;;;;;;;;;;-144.99;70.54;52435.88;5036342;28;19978;-76
2021/10/06 11:57:58;;;;;;;;;;;;;;;-144.99;69.59;52397.13;5034328;28;19989;-76
2021/10/06 12:00:24;;;;;;;;;;;;;;;-144.99;69.85;52370.63;5049893;28;20001;-75
2021/10/06 12:02:55;;;;;;;;;;;;;;;-144.99;66.20;52325.81;5022393;28;19998;-76
2021/10/06 12:05:22;;;;;;;;;;;;;;;-144.99;62.40;52374.72;5029629;28;20494;-76
2021/10/06 12:07:48;;;;;;;;;;;;;;;-144.99;63.78;52419.56;5029549;28;20428;-76
2021/10/06 12:10:16;;;;;;;;;;;;;;;-144.99;64.72;52403.25;5032194;28;19997;-76
2021/10/06 12:12:43;;;;;;;;;;;;;;;-144.99;64.76;52397.13;5029936;28;20419;-76
2021/10/06 12:15:10;;;;;;;;;;;;;;;-144.99;65.46;52413.44;5032470;28;20039;-77
2021/10/06 12:17:37;;;;;;;;;;;;;;;-144.99;64.99;52386.94;5037548;28;20670;-75
2021/10/06 12:20:05;;;;;;;;;;;;;;;-144.99;66.02;52446.06;5043569;28;20068;-75
2021/10/06 12:22:32;;;;;;;;;;;;;;;-144.99;66.39;52429.75;5029472;28;20518;-76
2021/10/06 12:24:58;;;;;;;;;;;;;;;-144.99;66.96;52427.72;5029409;28;20358;-75